createdAt,value
2022-11-25T00:01:44.688Z,97692.28
2022-11-25T00:06:45.963Z,97698.09
2022-11-25T00:11:47.259Z,97699.50
2022-11-25T00:16:49.011Z,97708.78
2022-11-25T00:21:50.344Z,97712.91
2022-11-25T00:26:51.616Z,97714.91
2022-11-25T00:31:52.883Z,97720.19
2022-11-25T00:36:54.148Z,97732.16
2022-11-25T00:42:14.244Z,97740.63
2022-11-25T00:47:15.457Z,97740.13
2022-11-25T00:52:16.712Z,97757.31
2022-11-25T00:57:17.928Z,97761.03
2022-11-25T01:02:19.190Z,97762.63
2022-11-25T01:07:20.567Z,97772.94
2022-11-25T01:12:21.848Z,97770.63
2022-11-25T01:17:23.100Z,97781.50
2022-11-25T01:22:24.352Z,97775.63
2022-11-25T01:27:25.623Z,97770.06
2022-11-25T01:32:26.821Z,97775.91
2022-11-25T01:37:28.092Z,97771.84
2022-11-25T01:42:29.312Z,97772.47
2022-11-25T01:47:30.537Z,97776.75
2022-11-25T01:52:31.771Z,97764.03
2022-11-25T01:57:33.047Z,97762.75
2022-11-25T02:02:34.410Z,97768.00
2022-11-25T02:07:36.195Z,97777.47
2022-11-25T02:12:38.659Z,97767.97
2022-11-25T02:17:40.033Z,97760.88
2022-11-25T02:22:41.253Z,97764.13
2022-11-25T02:27:42.477Z,97767.28
2022-11-25T02:32:44.004Z,97771.22
2022-11-25T02:37:45.287Z,97767.06
2022-11-25T02:42:46.593Z,97757.13
2022-11-25T02:47:47.792Z,97759.47
2022-11-25T02:52:49.125Z,97760.09
2022-11-25T02:57:50.401Z,97755.75
2022-11-25T03:02:51.613Z,97747.09
2022-11-25T03:07:52.888Z,97745.34
2022-11-25T03:12:54.201Z,97750.22
2022-11-25T03:17:55.444Z,97753.66
2022-11-25T03:22:56.693Z,97757.94
2022-11-25T03:27:58.089Z,97750.41
2022-11-25T03:32:59.344Z,97753.78
2022-11-25T03:38:00.573Z,97763.06
2022-11-25T03:43:01.866Z,97748.75
2022-11-25T03:48:03.137Z,97755.63
2022-11-25T03:53:04.381Z,97761.88
2022-11-25T03:58:05.635Z,97765.59
2022-11-25T04:03:06.895Z,97770.88
2022-11-25T04:08:08.230Z,97771.88
2022-11-25T04:13:09.505Z,97785.47
2022-11-25T04:18:10.807Z,97787.75
2022-11-25T04:23:12.272Z,97798.06
2022-11-25T04:28:13.555Z,97798.72
2022-11-25T04:33:14.773Z,97799.09
2022-11-25T04:38:16.069Z,97808.50
2022-11-25T04:43:17.405Z,97818.03
2022-11-25T04:48:18.613Z,97816.22
2022-11-25T04:53:19.851Z,97820.59
2022-11-25T04:58:41.086Z,97815.69
2022-11-25T05:03:48.067Z,97821.91
2022-11-25T05:08:50.927Z,97828.78
2022-11-25T05:13:52.136Z,97822.16
2022-11-25T05:18:53.392Z,97816.59
2022-11-25T05:23:56.100Z,97828.72
2022-11-25T05:28:57.564Z,97828.50
2022-11-25T05:33:58.906Z,97811.34
2022-11-25T05:39:00.157Z,97819.84
2022-11-25T05:44:01.538Z,97821.44
2022-11-25T05:49:02.793Z,97829.16
2022-11-25T05:54:04.041Z,97822.13
2022-11-25T05:59:05.393Z,97831.63
2022-11-25T06:04:06.889Z,97835.34
2022-11-25T06:09:08.178Z,97822.78
2022-11-25T06:14:09.790Z,97823.84
2022-11-25T06:19:11.026Z,97823.72
2022-11-25T06:24:12.303Z,97826.28
2022-11-25T06:29:13.522Z,97826.63
2022-11-25T06:34:14.724Z,97841.16
2022-11-25T06:39:16.116Z,97839.97
2022-11-25T06:44:17.404Z,97851.81
2022-11-25T06:49:18.627Z,97841.56
2022-11-25T06:54:19.935Z,97839.28
2022-11-25T06:59:21.174Z,97851.00
2022-11-25T07:04:22.411Z,97860.50
2022-11-25T07:09:24.991Z,97849.09
2022-11-25T07:14:26.269Z,97846.88
2022-11-25T07:19:27.540Z,97855.13
2022-11-25T07:24:28.795Z,97860.81
2022-11-25T07:29:54.242Z,97855.41
2022-11-25T07:34:52.036Z,97850.47
2022-11-25T07:39:53.227Z,97850.81
2022-11-25T07:44:54.463Z,97855.06
2022-11-25T07:49:55.797Z,97865.47
2022-11-25T07:54:56.997Z,97871.50
2022-11-25T07:59:58.261Z,97881.47
2022-11-25T08:04:59.546Z,97888.00
2022-11-25T08:10:00.783Z,97896.59
2022-11-25T08:15:02.024Z,97886.75
2022-11-25T08:20:03.557Z,97883.38
2022-11-25T08:25:04.877Z,97872.47
2022-11-25T08:30:06.119Z,97868.88
2022-11-25T08:35:07.382Z,97868.88
2022-11-25T08:40:08.661Z,97868.63
2022-11-25T08:45:10.976Z,97881.56
2022-11-25T08:50:12.989Z,97899.66
2022-11-25T08:55:14.281Z,97905.41
2022-11-25T09:00:15.502Z,97908.44
2022-11-25T09:05:16.843Z,97913.75
2022-11-25T09:10:18.133Z,97904.09
2022-11-25T09:15:19.476Z,97916.94
2022-11-25T09:20:20.841Z,97922.28
2022-11-25T09:25:22.253Z,97917.41
2022-11-25T09:30:23.527Z,97934.94
2022-11-25T09:35:24.768Z,97937.91
2022-11-25T09:40:26.242Z,97932.03
2022-11-25T09:45:46.442Z,97922.34
2022-11-25T09:50:47.706Z,97907.34
2022-11-25T09:55:49.020Z,97905.13
2022-11-25T10:00:50.276Z,97903.53
2022-11-25T10:05:52.961Z,97902.81
2022-11-25T10:10:54.343Z,97898.75
2022-11-25T10:15:55.677Z,97912.69
2022-11-25T10:20:56.985Z,97901.13
2022-11-25T10:25:58.267Z,97913.00
2022-11-25T10:30:59.667Z,97904.06
2022-11-25T10:36:00.972Z,97907.50
2022-11-25T10:41:02.185Z,97910.78
2022-11-25T10:46:03.660Z,97916.84
2022-11-25T10:51:04.983Z,97905.03
2022-11-25T10:56:06.296Z,97890.16
2022-11-25T11:01:07.558Z,97888.16
2022-11-25T11:06:08.851Z,97884.03
2022-11-25T11:11:11.237Z,97877.25
2022-11-25T11:16:12.589Z,97863.78
2022-11-25T11:21:13.947Z,97865.19
2022-11-25T11:26:15.228Z,97858.22
2022-11-25T11:31:17.452Z,97863.44
2022-11-25T11:36:18.870Z,97865.28
2022-11-25T11:41:20.137Z,97866.56
2022-11-25T11:46:21.402Z,97865.06
2022-11-25T11:51:22.665Z,97865.16
2022-11-25T11:56:39.309Z,97847.53
2022-11-25T12:01:40.655Z,97845.44
2022-11-25T12:06:41.960Z,97845.63
2022-11-25T12:11:43.269Z,97849.25
2022-11-25T12:16:44.552Z,97840.06
2022-11-25T12:21:45.850Z,97838.91
2022-11-25T12:26:47.113Z,97841.56
2022-11-25T12:31:48.409Z,97841.16
2022-11-25T12:36:49.719Z,97830.97
2022-11-25T12:41:51.006Z,97827.38
2022-11-25T12:46:52.340Z,97840.34
2022-11-25T12:51:53.663Z,97837.53
2022-11-25T12:56:54.908Z,97834.66
2022-11-25T13:01:56.367Z,97840.06
2022-11-25T13:06:57.718Z,97833.72
2022-11-25T13:11:59.797Z,97834.09
2022-11-25T13:17:01.891Z,97846.53
2022-11-25T13:22:04.356Z,97842.69
2022-11-25T13:27:06.094Z,97837.16
2022-11-25T13:32:07.433Z,97836.59
2022-11-25T13:37:08.802Z,97848.09
2022-11-25T13:42:10.100Z,97844.41
2022-11-25T13:47:11.386Z,97840.03
2022-11-25T13:52:12.632Z,97840.03
2022-11-25T13:57:13.965Z,97844.78
2022-11-25T14:02:15.331Z,97846.81
2022-11-25T14:07:19.985Z,97844.03
2022-11-25T14:12:21.687Z,97859.16
2022-11-25T14:17:23.032Z,97870.38
2022-11-25T14:22:24.374Z,97889.13
2022-11-25T14:27:25.585Z,97895.84
2022-11-25T14:32:26.862Z,97893.44
2022-11-25T14:37:28.135Z,97894.16
2022-11-25T14:42:29.422Z,97892.75
2022-11-25T14:47:34.593Z,97905.81
2022-11-25T14:52:40.515Z,97911.97
2022-11-25T14:57:42.136Z,97911.41
2022-11-25T15:02:43.634Z,97904.44
2022-11-25T15:07:44.934Z,97910.88
2022-11-25T15:12:50.038Z,97909.19
2022-11-25T15:17:55.194Z,97914.47
2022-11-25T15:22:56.577Z,97914.03
2022-11-25T15:27:58.425Z,97925.34
2022-11-25T15:32:59.862Z,97931.94
2022-11-25T15:38:01.083Z,97929.97
2022-11-25T15:43:02.356Z,97934.31
2022-11-25T15:48:03.576Z,97948.03
2022-11-25T15:53:04.832Z,97959.72
2022-11-25T15:58:06.102Z,97963.66
2022-11-25T16:03:07.590Z,97985.38
2022-11-25T16:08:08.833Z,97992.94
2022-11-25T16:13:10.294Z,98003.34
2022-11-25T16:18:38.612Z,98005.78
2022-11-25T16:23:32.851Z,98014.66
2022-11-25T16:28:34.101Z,98015.47
2022-11-25T16:33:35.318Z,98013.91
2022-11-25T16:38:36.582Z,98030.31
2022-11-25T16:43:40.057Z,98038.88
2022-11-25T16:48:41.325Z,98041.78
2022-11-25T16:53:43.537Z,98042.09
2022-11-25T16:58:44.826Z,98056.69
2022-11-25T17:03:46.079Z,98063.88
2022-11-25T17:08:47.299Z,98076.25
2022-11-25T17:13:51.653Z,98075.91
2022-11-25T17:18:52.904Z,98096.25
2022-11-25T17:23:55.427Z,98095.78
2022-11-25T17:28:56.834Z,98104.22
2022-11-25T17:33:58.061Z,98113.91
2022-11-25T17:38:59.406Z,98114.69
2022-11-25T17:44:00.658Z,98122.84
2022-11-25T17:49:01.904Z,98131.13
2022-11-25T17:54:03.150Z,98134.72
2022-11-25T17:59:04.410Z,98132.13
2022-11-25T18:04:05.664Z,98145.44
2022-11-25T18:09:06.928Z,98150.63
2022-11-25T18:14:08.246Z,98154.38
2022-11-25T18:19:10.240Z,98160.38
2022-11-25T18:24:11.493Z,98157.03
2022-11-25T18:29:12.734Z,98160.56
2022-11-25T18:34:13.935Z,98181.19
2022-11-25T18:39:15.149Z,98179.47
2022-11-25T18:44:16.352Z,98192.13
2022-11-25T18:49:17.626Z,98186.84
2022-11-25T18:54:18.981Z,98200.53
2022-11-25T18:59:20.294Z,98203.66
2022-11-25T19:04:21.753Z,98213.97
2022-11-25T19:09:23.195Z,98223.19
2022-11-25T19:14:26.099Z,98229.06
2022-11-25T19:19:27.507Z,98241.91
2022-11-25T19:24:29.133Z,98250.09
2022-11-25T19:29:30.468Z,98266.31
2022-11-25T19:34:31.880Z,98268.94
2022-11-25T19:39:33.160Z,98270.16
2022-11-25T19:44:34.586Z,98278.72
2022-11-25T19:49:36.042Z,98278.31
2022-11-25T19:54:37.540Z,98299.75
2022-11-25T19:59:39.057Z,98314.75
2022-11-25T20:04:42.523Z,98320.66
2022-11-25T20:09:44.130Z,98322.97
2022-11-25T20:14:45.418Z,98332.34
2022-11-25T20:19:46.633Z,98346.63
2022-11-25T20:24:47.856Z,98349.34
2022-11-25T20:29:49.093Z,98349.03
2022-11-25T20:34:50.469Z,98342.03
2022-11-25T20:39:51.953Z,98352.06
2022-11-25T20:44:57.317Z,98372.41
2022-11-25T20:49:59.142Z,98389.47
2022-11-25T20:55:04.428Z,98405.50
2022-11-25T21:00:05.724Z,98407.81
2022-11-25T21:05:07.086Z,98419.31
2022-11-25T21:10:08.462Z,98429.66
2022-11-25T21:15:10.206Z,98436.72
2022-11-25T21:20:11.531Z,98440.53
2022-11-25T21:25:14.137Z,98438.25
2022-11-25T21:30:15.454Z,98431.91
2022-11-25T21:35:16.839Z,98448.44
2022-11-25T21:40:18.069Z,98453.59
2022-11-25T21:45:19.383Z,98453.59
2022-11-25T21:50:20.788Z,98461.47
2022-11-25T21:55:22.037Z,98465.84
2022-11-25T22:00:23.268Z,98470.59
2022-11-25T22:05:27.681Z,98479.31
2022-11-25T22:10:29.042Z,98483.88
2022-11-25T22:15:30.445Z,98506.00
2022-11-25T22:20:33.495Z,98503.19
2022-11-25T22:25:34.714Z,98496.09
2022-11-25T22:30:36.060Z,98497.06
2022-11-25T22:35:37.351Z,98506.13
2022-11-25T22:40:38.716Z,98514.88
2022-11-25T22:45:40.015Z,98518.22
2022-11-25T22:50:41.270Z,98532.00
2022-11-25T22:55:42.621Z,98536.38
2022-11-25T23:00:45.230Z,98527.50
2022-11-25T23:05:46.501Z,98538.44
2022-11-25T23:10:48.287Z,98548.56
2022-11-25T23:15:49.655Z,98543.72
2022-11-25T23:20:50.881Z,98548.47
2022-11-25T23:25:52.234Z,98550.72
2022-11-25T23:30:53.526Z,98551.53
2022-11-25T23:35:54.729Z,98560.34
2022-11-25T23:40:55.999Z,98558.00
2022-11-25T23:45:57.287Z,98564.75
2022-11-25T23:50:58.629Z,98561.91
2022-11-25T23:55:59.956Z,98564.75
